Terminal Aerodrome Forecast
Issued by NWS North Platte, NE

Home | Current Version | Previous Version | Text Only | Print | Product List | Glossary On
Versions: 1 2 3 4 5 6 7 8 9 10 11 12 13
000
FTUS43 KLBF 222321
TAFVTN
TAF
KVTN 222321Z 2300/2324 26006KT P6SM SCT150
     FM230400 25008KT P6SM BKN120
     FM230500 29009KT P6SM VCSH BKN120
     FM230800 31011KT P6SM SCT120
     FM231300 31017G24KT P6SM FEW150
     FM231600 31024G34KT P6SM FEW150=

USA.gov is the U.S. government's official web portal to all federal, state and local government web resources and services.